createdAt,value
2023-01-22T00:00:43.477Z,101703.50
2023-01-22T00:03:11.177Z,101692.28
2023-01-22T00:05:38.837Z,101687.97
2023-01-22T00:08:07.148Z,101685.78
2023-01-22T00:10:34.689Z,101698.81
2023-01-22T00:13:02.256Z,101706.47
2023-01-22T00:15:31.320Z,101689.13
2023-01-22T00:17:59.301Z,101688.19
2023-01-22T00:20:26.900Z,101696.59
2023-01-22T00:22:54.467Z,101690.09
2023-01-22T00:25:22.002Z,101694.06
2023-01-22T00:27:49.656Z,101685.13
2023-01-22T00:30:18.199Z,101688.72
2023-01-22T00:32:48.189Z,101683.66
2023-01-22T00:35:15.864Z,101681.78
2023-01-22T00:37:43.467Z,101689.47
2023-01-22T00:40:12.346Z,101686.84
2023-01-22T00:42:40.471Z,101680.22
2023-01-22T00:45:08.760Z,101682.50
2023-01-22T00:47:36.614Z,101675.78
2023-01-22T00:50:06.474Z,101682.31
2023-01-22T00:52:37.688Z,101675.41
2023-01-22T00:55:06.323Z,101675.41
2023-01-22T00:57:33.904Z,101684.31
2023-01-22T01:00:01.530Z,101674.97
2023-01-22T01:02:29.101Z,101664.69
2023-01-22T01:04:57.320Z,101673.38
2023-01-22T01:07:26.260Z,101673.38
2023-01-22T01:09:53.905Z,101672.75
2023-01-22T01:12:21.438Z,101675.47
2023-01-22T01:14:49.141Z,101676.94
2023-01-22T01:17:16.663Z,101677.69
2023-01-22T01:19:44.208Z,101677.47
2023-01-22T01:22:11.702Z,101677.91
2023-01-22T01:24:40.517Z,101671.59
2023-01-22T01:27:07.957Z,101675.28
2023-01-22T01:29:35.428Z,101677.69
2023-01-22T01:32:02.977Z,101672.22
2023-01-22T01:34:30.484Z,101667.19
2023-01-22T01:36:57.924Z,101682.09
2023-01-22T01:39:25.365Z,101682.19
2023-01-22T01:41:54.151Z,101675.19
2023-01-22T01:44:23.188Z,101668.88
2023-01-22T01:46:52.921Z,101670.53
2023-01-22T01:49:27.901Z,101665.41
2023-01-22T01:51:57.742Z,101673.28
2023-01-22T01:54:25.861Z,101668.88
2023-01-22T01:56:57.394Z,101665.94
2023-01-22T01:59:24.974Z,101671.19
2023-01-22T02:01:55.020Z,101669.72
2023-01-22T02:04:23.125Z,101667.63
2023-01-22T02:06:50.583Z,101669.28
2023-01-22T02:09:18.158Z,101672.66
2023-01-22T02:11:45.666Z,101664.50
2023-01-22T02:14:16.833Z,101661.13
2023-01-22T02:16:44.951Z,101661.97
2023-01-22T02:19:12.468Z,101671.00
2023-01-22T02:21:42.810Z,101663.94
2023-01-22T02:24:11.949Z,101658.06
2023-01-22T02:26:40.341Z,101657.78
2023-01-22T02:29:08.952Z,101666.03
2023-01-22T02:31:37.244Z,101671.81
2023-01-22T02:34:05.823Z,101662.16
2023-01-22T02:36:34.737Z,101660.59
2023-01-22T02:39:03.794Z,101673.63
2023-01-22T02:41:31.301Z,101670.34
2023-01-22T02:43:58.785Z,101667.91
2023-01-22T02:46:26.732Z,101666.56
2023-01-22T02:48:54.497Z,101668.38
2023-01-22T02:51:22.308Z,101666.47
2023-01-22T02:53:49.916Z,101664.91
2023-01-22T02:56:18.838Z,101664.69
2023-01-22T02:58:46.316Z,101665.94
2023-01-22T03:01:20.496Z,101658.69
2023-01-22T03:03:48.649Z,101666.56
2023-01-22T03:06:21.284Z,101656.06
2023-01-22T03:08:48.845Z,101663.22
2023-01-22T03:11:16.457Z,101661.50
2023-01-22T03:14:03.136Z,101664.69
2023-01-22T03:16:48.722Z,101659.34
2023-01-22T03:19:34.033Z,101660.19
2023-01-22T03:22:01.544Z,101666.75
2023-01-22T03:24:29.189Z,101666.75
2023-01-22T03:26:56.711Z,101663.03
2023-01-22T03:29:25.525Z,101662.66
2023-01-22T03:31:53.069Z,101665.19
2023-01-22T03:34:21.948Z,101659.66
2023-01-22T03:36:49.601Z,101657.13
2023-01-22T03:39:17.237Z,101665.00
2023-01-22T03:41:44.709Z,101667.00
2023-01-22T03:44:14.143Z,101663.53
2023-01-22T03:46:42.977Z,101664.69
2023-01-22T03:49:11.038Z,101661.50
2023-01-22T03:51:38.874Z,101664.91
2023-01-22T03:54:06.651Z,101664.78
2023-01-22T03:56:34.322Z,101666.56
2023-01-22T03:59:01.808Z,101669.09
2023-01-22T04:01:29.677Z,101663.94
2023-01-22T04:03:58.510Z,101667.53
2023-01-22T04:06:26.008Z,101666.56
2023-01-22T04:08:55.329Z,101663.22
2023-01-22T04:11:23.452Z,101666.97
2023-01-22T04:13:51.100Z,101668.38
2023-01-22T04:16:18.617Z,101669.38
2023-01-22T04:18:46.135Z,101672.78
2023-01-22T04:21:14.928Z,101680.44
2023-01-22T04:23:42.389Z,101681.41
2023-01-22T04:26:09.830Z,101675.41
2023-01-22T04:28:37.306Z,101688.22
2023-01-22T04:31:05.142Z,101685.69
2023-01-22T04:33:32.794Z,101678.66
2023-01-22T04:36:00.264Z,101682.31
2023-01-22T04:38:29.054Z,101685.88
2023-01-22T04:40:56.540Z,101687.56
2023-01-22T04:43:24.013Z,101689.56
2023-01-22T04:45:51.801Z,101680.84
2023-01-22T04:48:19.272Z,101689.47
2023-01-22T04:50:46.733Z,101694.53
2023-01-22T04:53:14.227Z,101691.69
2023-01-22T04:55:43.486Z,101688.41
2023-01-22T04:58:10.950Z,101690.75
2023-01-22T05:00:38.509Z,101687.38
2023-01-22T05:03:06.220Z,101680.63
2023-01-22T05:05:34.705Z,101683.47
2023-01-22T05:08:02.235Z,101683.81
2023-01-22T05:10:29.824Z,101691.50
2023-01-22T05:12:58.684Z,101688.22
2023-01-22T05:15:26.159Z,101688.75
2023-01-22T05:17:54.113Z,101691.50
2023-01-22T05:20:21.783Z,101695.13
2023-01-22T05:22:49.535Z,101694.00
2023-01-22T05:25:17.213Z,101699.16
2023-01-22T05:27:44.815Z,101698.00
2023-01-22T05:30:14.562Z,101694.63
2023-01-22T05:32:42.223Z,101689.19
2023-01-22T05:35:10.429Z,101685.53
2023-01-22T05:37:37.894Z,101695.59
2023-01-22T05:40:06.680Z,101693.59
2023-01-22T05:42:34.141Z,101697.06
2023-01-22T05:45:01.603Z,101701.28
2023-01-22T05:47:30.545Z,101701.38
2023-01-22T05:49:57.993Z,101701.28
2023-01-22T05:52:25.460Z,101696.34
2023-01-22T05:54:52.923Z,101705.69
2023-01-22T05:57:20.396Z,101702.31
2023-01-22T05:59:48.081Z,101702.97
2023-01-22T06:02:15.558Z,101709.69
2023-01-22T06:04:44.398Z,101703.56
2023-01-22T06:07:11.859Z,101701.28
2023-01-22T06:09:39.319Z,101702.09
2023-01-22T06:12:07.438Z,101705.47
2023-01-22T06:14:34.897Z,101714.28
2023-01-22T06:17:02.449Z,101713.47
2023-01-22T06:19:29.898Z,101715.97
2023-01-22T06:21:58.738Z,101710.72
2023-01-22T06:24:26.205Z,101715.13
2023-01-22T06:26:53.657Z,101720.84
2023-01-22T06:29:21.387Z,101719.31
2023-01-22T06:31:48.937Z,101727.63
2023-01-22T06:34:16.429Z,101723.31
2023-01-22T06:36:44.011Z,101728.38
2023-01-22T06:39:12.809Z,101730.03
2023-01-22T06:41:40.285Z,101729.31
2023-01-22T06:44:07.964Z,101733.81
2023-01-22T06:46:35.494Z,101730.03
2023-01-22T06:49:03.192Z,101735.09
2023-01-22T06:51:31.140Z,101743.16
2023-01-22T06:53:58.592Z,101744.22
2023-01-22T06:56:28.053Z,101735.63
2023-01-22T06:58:55.517Z,101736.47
2023-01-22T07:01:23.109Z,101746.75
2023-01-22T07:03:50.619Z,101740.88
2023-01-22T07:06:18.770Z,101746.44
2023-01-22T07:08:46.573Z,101757.50
2023-01-22T07:11:15.243Z,101761.16
2023-01-22T07:13:44.107Z,101761.16
2023-01-22T07:16:12.678Z,101765.88
2023-01-22T07:18:40.327Z,101759.28
2023-01-22T07:21:07.920Z,101765.38
2023-01-22T07:23:35.391Z,101757.41
2023-01-22T07:26:02.846Z,101771.25
2023-01-22T07:28:30.373Z,101769.13
2023-01-22T07:30:59.258Z,101774.56
2023-01-22T07:33:26.964Z,101785.53
2023-01-22T07:35:56.302Z,101776.06
2023-01-22T07:38:24.237Z,101786.59
2023-01-22T07:40:51.862Z,101789.94
2023-01-22T07:43:19.333Z,101790.88
2023-01-22T07:45:47.066Z,101797.91
2023-01-22T07:48:15.864Z,101800.44
2023-01-22T07:50:43.361Z,101794.69
2023-01-22T07:53:11.702Z,101798.16
2023-01-22T07:55:39.371Z,101805.09
2023-01-22T07:58:07.630Z,101804.56
2023-01-22T08:00:36.421Z,101802.75
2023-01-22T08:03:05.347Z,101804.28
2023-01-22T08:05:34.411Z,101802.34
2023-01-22T08:08:02.048Z,101811.94
2023-01-22T08:10:29.664Z,101807.41
2023-01-22T08:12:57.226Z,101818.31
2023-01-22T08:15:24.833Z,101817.72
2023-01-22T08:17:52.403Z,101816.91
2023-01-22T08:20:21.220Z,101825.59
2023-01-22T08:22:50.214Z,101827.50
2023-01-22T08:25:17.972Z,101824.69
2023-01-22T08:27:45.512Z,101828.44
2023-01-22T08:30:14.297Z,101826.56
2023-01-22T08:32:42.159Z,101826.47
2023-01-22T08:35:11.938Z,101831.59
2023-01-22T08:37:40.745Z,101834.25
2023-01-22T08:40:11.934Z,101845.25
2023-01-22T08:42:39.508Z,101839.38
2023-01-22T08:45:07.917Z,101829.69
2023-01-22T08:47:35.500Z,101838.13
2023-01-22T08:50:03.832Z,101841.31
2023-01-22T08:52:33.136Z,101844.16
2023-01-22T08:55:00.636Z,101849.91
2023-01-22T08:57:29.902Z,101842.13
2023-01-22T09:00:01.588Z,101844.25
2023-01-22T09:02:29.306Z,101844.38
2023-01-22T09:04:56.843Z,101843.53
2023-01-22T09:07:24.325Z,101851.22
2023-01-22T09:09:51.806Z,101850.06
2023-01-22T09:12:19.338Z,101851.34
2023-01-22T09:14:48.157Z,101853.88
2023-01-22T09:17:15.614Z,101858.16
2023-01-22T09:19:43.130Z,101865.66
2023-01-22T09:22:10.631Z,101868.72
2023-01-22T09:24:38.055Z,101872.91
2023-01-22T09:27:05.493Z,101865.75
2023-01-22T09:29:32.962Z,101861.53
2023-01-22T09:32:01.775Z,101876.06
2023-01-22T09:34:29.254Z,101870.19
2023-01-22T09:36:56.709Z,101870.91
2023-01-22T09:39:24.186Z,101866.69
2023-01-22T09:41:54.074Z,101881.00
2023-01-22T09:44:23.558Z,101873.97
2023-01-22T09:46:53.001Z,101872.81
2023-01-22T09:49:22.977Z,101877.78
2023-01-22T09:51:54.985Z,101865.59
2023-01-22T09:54:23.266Z,101873.78
2023-01-22T09:56:52.487Z,101874.63
2023-01-22T09:59:22.496Z,101873.06
2023-01-22T10:01:53.697Z,101890.31
2023-01-22T10:04:33.676Z,101875.69
2023-01-22T10:07:02.100Z,101874.13
2023-01-22T10:09:31.591Z,101867.91
2023-01-22T10:12:00.327Z,101884.75
2023-01-22T10:14:30.505Z,101887.47
2023-01-22T10:17:00.394Z,101878.84
2023-01-22T10:19:41.326Z,101879.13
2023-01-22T10:22:13.346Z,101881.06
2023-01-22T10:24:40.830Z,101878.22
2023-01-22T10:27:13.507Z,101879.78
2023-01-22T10:29:41.008Z,101879.69
2023-01-22T10:32:18.664Z,101885.81
2023-01-22T10:34:59.203Z,101869.16
2023-01-22T10:37:26.690Z,101882.41
2023-01-22T10:39:58.091Z,101879.28
2023-01-22T10:42:27.053Z,101885.50
2023-01-22T10:44:56.984Z,101886.31
2023-01-22T10:47:27.379Z,101889.59
2023-01-22T10:50:07.685Z,101888.22
2023-01-22T10:52:37.574Z,101883.91
2023-01-22T10:55:05.810Z,101891.56
2023-01-22T10:57:35.525Z,101887.06
2023-01-22T11:00:08.871Z,101879.72
2023-01-22T11:02:36.899Z,101880.34
2023-01-22T11:05:18.348Z,101871.38
2023-01-22T11:07:47.436Z,101877.41
2023-01-22T11:10:20.726Z,101877.63
2023-01-22T11:12:51.097Z,101876.94
2023-01-22T11:15:23.047Z,101885.81
2023-01-22T11:17:52.657Z,101882.41
2023-01-22T11:20:24.588Z,101889.91
2023-01-22T11:23:00.968Z,101887.25
2023-01-22T11:25:34.860Z,101890.56
2023-01-22T11:28:09.441Z,101883.81
2023-01-22T11:30:58.712Z,101882.75
2023-01-22T11:33:43.081Z,101887.47
2023-01-22T11:36:16.991Z,101891.81
2023-01-22T11:38:49.793Z,101879.78
2023-01-22T11:41:40.425Z,101891.47
2023-01-22T11:44:29.008Z,101884.34
2023-01-22T11:47:07.935Z,101884.94
2023-01-22T11:49:45.753Z,101878.13
2023-01-22T11:52:27.425Z,101887.94
2023-01-22T11:55:06.221Z,101883.09
2023-01-22T11:57:37.865Z,101882.66
2023-01-22T12:00:25.431Z,101878.03
2023-01-22T12:03:18.727Z,101869.19
2023-01-22T12:05:49.619Z,101874.34
2023-01-22T12:08:28.682Z,101874.66
2023-01-22T12:11:06.695Z,101876.31
2023-01-22T12:13:47.014Z,101872.97
2023-01-22T12:16:21.131Z,101865.38
2023-01-22T12:19:00.024Z,101854.03
2023-01-22T12:21:40.333Z,101861.63
2023-01-22T12:24:13.353Z,101852.34
2023-01-22T12:26:45.322Z,101849.81
2023-01-22T12:29:17.219Z,101854.22
2023-01-22T12:31:47.480Z,101855.91
2023-01-22T12:34:19.790Z,101853.69
2023-01-22T12:36:47.723Z,101860.56
2023-01-22T12:39:25.605Z,101861.63
2023-01-22T12:41:58.639Z,101856.97
2023-01-22T12:44:35.433Z,101864.97
2023-01-22T12:47:11.502Z,101863.91
2023-01-22T12:49:49.479Z,101858.03
2023-01-22T12:52:32.420Z,101857.16
2023-01-22T12:55:02.361Z,101855.78
2023-01-22T13:00:22.407Z,101869.69
2023-01-22T13:02:49.909Z,101860.75
2023-01-22T13:05:21.946Z,101864.00
2023-01-22T13:07:52.094Z,101867.28
2023-01-22T13:10:29.232Z,101862.63
2023-01-22T13:12:57.878Z,101864.97
2023-01-22T13:15:27.336Z,101866.53
2023-01-22T13:18:06.408Z,101869.59
2023-01-22T13:20:36.259Z,101869.28
2023-01-22T13:23:06.247Z,101876.34
2023-01-22T13:25:35.536Z,101878.88
2023-01-22T13:28:03.706Z,101879.25
2023-01-22T13:30:31.806Z,101884.75
2023-01-22T13:33:04.589Z,101881.78
2023-01-22T13:35:32.077Z,101879.06
2023-01-22T13:37:59.524Z,101892.31
2023-01-22T13:40:31.454Z,101882.44
2023-01-22T13:43:03.714Z,101885.16
2023-01-22T13:45:33.132Z,101886.75
2023-01-22T13:48:03.883Z,101892.97
2023-01-22T13:50:32.131Z,101894.44
2023-01-22T13:53:00.271Z,101891.47
2023-01-22T13:55:29.285Z,101895.28
2023-01-22T13:57:57.955Z,101892.97
2023-01-22T14:00:30.056Z,101894.09
2023-01-22T14:02:58.045Z,101894.63
2023-01-22T14:05:26.981Z,101893.59
2023-01-22T14:08:05.715Z,101892.97
2023-01-22T14:10:33.267Z,101901.06
2023-01-22T14:13:01.690Z,101904.34
2023-01-22T14:15:30.819Z,101906.66
2023-01-22T14:18:08.445Z,101901.81
2023-01-22T14:20:35.967Z,101905.16
2023-01-22T14:23:03.732Z,101913.38
2023-01-22T14:25:31.847Z,101913.59
2023-01-22T14:28:00.926Z,101912.13
2023-01-22T14:30:30.004Z,101907.06
2023-01-22T14:32:57.873Z,101911.16
2023-01-22T14:35:27.351Z,101914.34
2023-01-22T14:37:55.933Z,101908.84
2023-01-22T14:40:25.979Z,101911.28
2023-01-22T14:42:53.710Z,101919.50
2023-01-22T14:45:21.953Z,101920.88
2023-01-22T14:47:52.566Z,101913.06
2023-01-22T14:50:21.107Z,101920.97
2023-01-22T14:52:49.249Z,101924.31
2023-01-22T14:55:17.087Z,101923.28
2023-01-22T14:57:44.668Z,101918.44
2023-01-22T15:00:13.937Z,101925.69
2023-01-22T15:02:41.694Z,101924.22
2023-01-22T15:05:11.877Z,101921.69
2023-01-22T15:07:39.931Z,101930.44
2023-01-22T15:10:09.142Z,101939.47
2023-01-22T15:12:36.971Z,101926.22
2023-01-22T15:15:05.230Z,101933.38
2023-01-22T15:17:33.050Z,101928.44
2023-01-22T15:20:00.703Z,101938.19
2023-01-22T15:22:29.871Z,101931.78
2023-01-22T15:24:57.592Z,101942.09
2023-01-22T15:27:25.135Z,101941.38
2023-01-22T15:29:52.647Z,101958.84
2023-01-22T15:32:20.193Z,101954.19
2023-01-22T15:34:47.841Z,101954.63
2023-01-22T15:37:15.460Z,101954.63
2023-01-22T15:39:44.375Z,101957.06
2023-01-22T15:42:11.973Z,101954.84
2023-01-22T15:44:39.709Z,101953.97
2023-01-22T15:47:07.340Z,101967.03
2023-01-22T15:49:35.203Z,101961.88
2023-01-22T15:52:02.725Z,101973.34
2023-01-22T15:54:30.258Z,101972.50
2023-01-22T15:56:59.031Z,101968.09
2023-01-22T15:59:26.498Z,101971.44
2023-01-22T16:01:53.962Z,101968.81
2023-01-22T16:04:21.417Z,101968.91
2023-01-22T16:06:48.865Z,101964.31
2023-01-22T16:09:16.320Z,101980.09
2023-01-22T16:11:43.876Z,101975.22
2023-01-22T16:14:12.702Z,101975.44
2023-01-22T16:16:40.583Z,101982.25
2023-01-22T16:19:08.904Z,101993.03
2023-01-22T16:21:36.695Z,101985.13
2023-01-22T16:24:04.478Z,101983.31
2023-01-22T16:26:33.648Z,101977.25
2023-01-22T16:29:02.381Z,101979.22
2023-01-22T16:31:32.680Z,101987.97
2023-01-22T16:34:01.729Z,101994.78
2023-01-22T16:36:32.326Z,101997.06
2023-01-22T16:39:00.122Z,101998.59
2023-01-22T16:41:28.765Z,102004.03
2023-01-22T16:43:58.452Z,102001.63
2023-01-22T16:46:27.968Z,102000.00
2023-01-22T16:49:01.590Z,102017.69
2023-01-22T16:51:34.514Z,102007.28
2023-01-22T16:54:01.994Z,102012.34
2023-01-22T16:56:29.487Z,102015.69
2023-01-22T16:58:57.005Z,102011.38
2023-01-22T17:01:24.571Z,102016.63
2023-01-22T17:03:52.076Z,102016.72
2023-01-22T17:06:26.651Z,102019.25
2023-01-22T17:08:54.402Z,102012.84
2023-01-22T17:11:22.260Z,102020.22
2023-01-22T17:13:50.312Z,102017.41
2023-01-22T17:16:18.648Z,102022.44
2023-01-22T17:18:46.258Z,102027.72
2023-01-22T17:21:15.577Z,102034.84
2023-01-22T17:23:44.435Z,102030.94
2023-01-22T17:26:13.720Z,102033.91
2023-01-22T17:28:41.246Z,102036.63
2023-01-22T17:31:09.725Z,102037.09
2023-01-22T17:33:37.905Z,102041.38
2023-01-22T17:36:06.613Z,102035.50
2023-01-22T17:38:38.463Z,102041.06
2023-01-22T17:41:10.197Z,102044.72
2023-01-22T17:43:38.729Z,102034.09
2023-01-22T17:46:11.480Z,102052.50
2023-01-22T17:48:39.609Z,102047.25
2023-01-22T17:51:09.000Z,102044.41
2023-01-22T17:53:37.210Z,102060.19
2023-01-22T17:56:08.208Z,102056.84
2023-01-22T17:58:36.169Z,102068.28
2023-01-22T18:01:05.763Z,102064.06
2023-01-22T18:03:33.880Z,102066.78
2023-01-22T18:06:01.514Z,102071.75
2023-01-22T18:08:29.869Z,102079.75
2023-01-22T18:10:57.459Z,102077.88
2023-01-22T18:13:26.345Z,102081.22
2023-01-22T18:15:54.674Z,102076.63
2023-01-22T18:18:22.138Z,102075.44
2023-01-22T18:20:49.691Z,102078.06
2023-01-22T18:23:17.349Z,102076.38
2023-01-22T18:25:47.214Z,102081.63
2023-01-22T18:28:14.994Z,102080.69
2023-01-22T18:30:44.259Z,102078.59
2023-01-22T18:33:14.088Z,102081.81
2023-01-22T18:35:42.994Z,102079.47
2023-01-22T18:38:10.936Z,102082.94
2023-01-22T18:40:38.692Z,102087.06
2023-01-22T18:43:08.935Z,102093.66
2023-01-22T18:45:37.243Z,102097.66
2023-01-22T18:48:06.754Z,102098.34
2023-01-22T18:50:34.534Z,102091.31
2023-01-22T18:53:02.065Z,102094.69
2023-01-22T18:55:40.135Z,102096.47
2023-01-22T18:58:14.389Z,102088.78
2023-01-22T19:00:42.464Z,102093.84
2023-01-22T19:03:12.527Z,102091.31
2023-01-22T19:05:43.776Z,102096.28
2023-01-22T19:08:11.695Z,102098.16
2023-01-22T19:10:39.212Z,102092.91
2023-01-22T19:13:06.738Z,102095.63
2023-01-22T19:15:35.220Z,102097.41
2023-01-22T19:18:03.297Z,102098.44
2023-01-22T19:20:35.818Z,102102.84
2023-01-22T19:23:03.368Z,102113.38
2023-01-22T19:25:30.977Z,102110.84
2023-01-22T19:27:58.924Z,102109.91
2023-01-22T19:30:26.545Z,102113.56
2023-01-22T19:32:55.109Z,102116.38
2023-01-22T19:35:24.124Z,102118.91
2023-01-22T19:37:53.980Z,102125.97
2023-01-22T19:40:22.109Z,102129.94
2023-01-22T19:42:50.115Z,102119.63
2023-01-22T19:45:18.440Z,102127.78
2023-01-22T19:47:46.232Z,102125.06
2023-01-22T19:50:13.791Z,102134.44
2023-01-22T19:52:41.457Z,102127.41
2023-01-22T19:55:10.961Z,102126.47
2023-01-22T19:57:38.613Z,102129.94
2023-01-22T20:00:09.613Z,102135.66
2023-01-22T20:02:37.754Z,102133.97
2023-01-22T20:05:06.036Z,102131.06
2023-01-22T20:07:34.150Z,102133.78
2023-01-22T20:10:02.324Z,102148.41
2023-01-22T20:12:31.191Z,102144.50
2023-01-22T20:14:58.796Z,102151.72
2023-01-22T20:17:26.394Z,102146.63
2023-01-22T20:19:54.067Z,102160.53
2023-01-22T20:22:21.660Z,102161.41
2023-01-22T20:24:49.318Z,102158.09
2023-01-22T20:27:16.891Z,102163.09
2023-01-22T20:29:46.204Z,102157.72
2023-01-22T20:32:13.805Z,102152.28
2023-01-22T20:34:42.821Z,102162.03
2023-01-22T20:37:10.380Z,102153.19
2023-01-22T20:39:38.046Z,102151.63
2023-01-22T20:42:05.693Z,102156.25
2023-01-22T20:44:34.975Z,102155.09
2023-01-22T20:47:07.688Z,102154.34
2023-01-22T20:49:35.354Z,102157.44
2023-01-22T20:52:02.958Z,102152.47
2023-01-22T20:54:32.144Z,102163.00
2023-01-22T20:56:59.811Z,102160.34
2023-01-22T20:59:28.617Z,102163.47
2023-01-22T21:01:56.240Z,102161.69
2023-01-22T21:04:25.654Z,102166.00
2023-01-22T21:07:05.716Z,102173.03
2023-01-22T21:09:34.845Z,102175.47
2023-01-22T21:12:02.563Z,102170.13
2023-01-22T21:14:30.716Z,102172.00
2023-01-22T21:16:58.319Z,102171.06
2023-01-22T21:19:28.804Z,102172.75
2023-01-22T21:21:57.320Z,102180.44
2023-01-22T21:24:25.190Z,102179.81
2023-01-22T21:26:52.895Z,102181.00
2023-01-22T21:29:23.520Z,102171.91
2023-01-22T21:31:53.931Z,102173.03
2023-01-22T21:34:23.284Z,102172.00
2023-01-22T21:36:54.006Z,102167.75
2023-01-22T21:39:23.991Z,102169.09
2023-01-22T21:41:51.781Z,102166.06
2023-01-22T21:44:40.376Z,102166.53
2023-01-22T21:47:08.054Z,102161.09
2023-01-22T21:49:36.209Z,102163.06
2023-01-22T21:52:09.057Z,102171.69
2023-01-22T21:54:38.801Z,102171.97
2023-01-22T21:57:07.630Z,102164.66
2023-01-22T21:59:36.281Z,102170.69
2023-01-22T22:02:04.345Z,102171.81
2023-01-22T22:04:32.273Z,102175.94
2023-01-22T22:06:59.852Z,102177.06
2023-01-22T22:09:30.531Z,102183.25
2023-01-22T22:11:59.193Z,102180.25
2023-01-22T22:14:27.139Z,102183.81
2023-01-22T22:16:54.883Z,102180.16
2023-01-22T22:19:23.810Z,102173.03
2023-01-22T22:21:51.846Z,102175.56
2023-01-22T22:24:20.045Z,102185.03
2023-01-22T22:26:49.036Z,102186.44
2023-01-22T22:29:16.720Z,102180.72
2023-01-22T22:31:44.379Z,102188.91
2023-01-22T22:34:12.072Z,102183.56
2023-01-22T22:36:39.792Z,102188.91
2023-01-22T22:39:07.456Z,102193.31
2023-01-22T22:41:38.450Z,102194.34
2023-01-22T22:44:08.007Z,102199.22
2023-01-22T22:46:37.792Z,102200.16
2023-01-22T22:49:05.910Z,102199.41
2023-01-22T22:51:35.083Z,102189.84
2023-01-22T22:54:04.399Z,102197.63
2023-01-22T22:56:32.581Z,102201.41
2023-01-22T22:59:01.949Z,102201.69
2023-01-22T23:01:31.465Z,102204.50
2023-01-22T23:03:59.138Z,102199.06
2023-01-22T23:06:29.828Z,102201.00
2023-01-22T23:08:58.640Z,102206.75
2023-01-22T23:11:28.151Z,102206.19
2023-01-22T23:14:02.525Z,102218.09
2023-01-22T23:16:33.011Z,102207.50
2023-01-22T23:19:03.052Z,102205.03
2023-01-22T23:21:30.805Z,102192.25
2023-01-22T23:23:58.472Z,102200.16
2023-01-22T23:26:30.184Z,102201.09
2023-01-22T23:29:00.407Z,102197.72
2023-01-22T23:31:28.534Z,102191.81
2023-01-22T23:33:57.929Z,102204.09
2023-01-22T23:36:26.522Z,102197.25
2023-01-22T23:38:54.415Z,102207.94
2023-01-22T23:41:22.290Z,102208.13
2023-01-22T23:43:50.377Z,102217.50
2023-01-22T23:46:20.862Z,102219.31
2023-01-22T23:48:48.945Z,102209.53
2023-01-22T23:51:18.902Z,102218.47
2023-01-22T23:53:48.571Z,102209.63
2023-01-22T23:56:16.822Z,102208.13
2023-01-22T23:58:44.277Z,102205.78
